Atwell, West Virginia
Current Conditions -  °F | °C
As of 7:55 PM on Sunday 23 Nov 2014 (Local Time) from KJFZ Reporting Station
Moderate Rain Moderate Rain  
Wind Chill: 55°   Ceiling: 10000
Heat Index: 55°   Visibility: 10mi
Dew Point: 52°   Wind: 18mph
Humidity: 89%   Direction: 130°SE
Pressure: 29.66"   Gusts: 38mph
Location:  37.3433°N, 81.7826°W
Report Text: KJFZ 240055Z AUTO 13016G33KT 080V160 10SM RA SCT060 SCT070 OVC100 13/11 A2966 RMK AO2 P0009 T01280110
Loading
Personal Weather Stations






























Interactive Weather Map New forecast layout! Learn more

10-Day Weather Forecast

Advertisements
Track Severe Weather on mobile